Chitose — JD2925 — position and weather

sailwx.info

Track history (hours):
 
Tides and Currents Weather Stations Pressure Air Temp Water Temp Dewpoint Dewpoint Depression Visibility Wind Speed Wind Dir Waves Ship Positions

Chitose

Last reported at 2016-Aug-28 08:33 UTC. Time now 2016-Aug-28 08:46 UTC.
Position N 35°23' E 139°41'.

Length 33 m; draft 3.8 m.

Type: Tug. MMSI: 431000953.

Date/timePositionNaut miles runAvg speedWind from/ knotsBaromVisibWave heightAir tempDewpointWater temp
2016-Aug-28 08:33N 35°23' E 139°41'0 0.2
2016-Aug-28 07:33N 35°23' E 139°41'4 4.5
2016-Aug-28 06:33N 35°27' E 139°41'1 1.2
2016-Aug-28 05:34N 35°27' E 139°40'0 0.0
2016-Aug-28 04:33N 35°27' E 139°40'0 0.0
2016-Aug-28 03:33N 35°27' E 139°40'0 0.0
2016-Aug-28 02:33N 35°27' E 139°40'1 1.0
2016-Aug-28 01:34N 35°28' E 139°40'1 0.6
2016-Aug-28 00:33N 35°27' E 139°40'1 1.4
2016-Aug-27 23:33N 35°27' E 139°42'0 0.3
2016-Aug-27 22:33N 35°27' E 139°42'2 1.8
2016-Aug-27 21:33N 35°26' E 139°44'4 3.9
2016-Aug-27 20:34N 35°27' E 139°40'2 0.2
2016-Aug-27 09:34N 35°26' E 139°42'2 2.0
2016-Aug-27 08:34N 35°24' E 139°41'3 3.3
2016-Aug-27 07:34N 35°27' E 139°43'2 1.8
2016-Aug-27 06:34N 35°28' E 139°41'1 0.3
2016-Aug-27 04:34N 35°28' E 139°41'0 0.0
2016-Aug-27 03:34N 35°28' E 139°41'1 1.0
2016-Aug-27 02:34N 35°28' E 139°41'1 1.0
2016-Aug-27 01:34N 35°28' E 139°42'0 0.1
2016-Aug-27 00:34N 35°28' E 139°42'2 1.6
2016-Aug-26 23:34N 35°26' E 139°43'2 2.4
2016-Aug-26 22:34N 35°28' E 139°42'2 2.3
2016-Aug-26 21:34N 35°27' E 139°40'0 0.0
2016-Aug-25 23:17N 35°27' E 139°40'1 1.4
2016-Aug-25 22:33N 35°28' E 139°40'2 2.1
2016-Aug-25 21:33N 35°27' E 139°42'1 1.0
2016-Aug-25 20:33N 35°28' E 139°41'1 0.9
2016-Aug-25 19:34N 35°27' E 139°41'1 1.1
2016-Aug-25 18:33N 35°28' E 139°40'0 0.0
2016-Aug-25 17:33N 35°28' E 139°40'0 0.0
2016-Aug-25 16:33N 35°28' E 139°40'0 0.0
2016-Aug-25 15:33N 35°28' E 139°40'5 5.4
2016-Aug-25 14:33N 35°29' E 139°47'2 2.3
2016-Aug-25 13:33N 35°31' E 139°46'7 6.6
2016-Aug-25 12:33N 35°27' E 139°39'0 0.0
2016-Aug-25 11:33N 35°27' E 139°39'0 0.0
2016-Aug-25 10:33N 35°27' E 139°39'2 1.5
2016-Aug-25 09:34N 35°27' E 139°41'1 0.6
2016-Aug-25 08:34N 35°27' E 139°41'0 0.5
2016-Aug-25 07:33N 35°28' E 139°40'1 1.2
2016-Aug-25 06:33N 35°26' E 139°41'1 0.6
2016-Aug-25 04:33N 35°27' E 139°40'0 0.0
2016-Aug-25 03:34N 35°27' E 139°40'0 0.0
2016-Aug-25 02:34N 35°27' E 139°40'0 0.0
2016-Aug-25 01:33N 35°27' E 139°40'0 0.0
2016-Aug-25 00:33N 35°27' E 139°40'0 0.0
2016-Aug-24 23:33N 35°27' E 139°40'0 0.0
2016-Aug-24 22:33N 35°27' E 139°40'0 0.0
2016-Aug-24 21:34N 35°27' E 139°40'0 0.0
2016-Aug-24 20:33N 35°27' E 139°40'1 0.1
2016-Aug-24 04:34N 35°26' E 139°41'1 1.4
2016-Aug-24 03:34N 35°27' E 139°39'0 0.0
2016-Aug-24 02:33N 35°27' E 139°39'0 0.1
2016-Aug-24 01:34N 35°27' E 139°40'1010.4
2016-Aug-24 00:33N 35°30' E 139°52'6 5.6
2016-Aug-23 23:34N 35°28' E 139°58'3 2.8
2016-Aug-23 22:33N 35°29' E 139°55'1111.5
2016-Aug-23 21:34N 35°27' E 139°41'1 1.2
2016-Aug-23 20:34N 35°27' E 139°40'1 0.1
2016-Aug-23 08:33N 35°27' E 139°41'1 1.3
2016-Aug-23 07:33N 35°27' E 139°39'2 1.9
2016-Aug-23 06:33N 35°28' E 139°41'2 1.7
2016-Aug-23 05:33N 35°29' E 139°43'2 2.1
2016-Aug-23 04:34N 35°27' E 139°42'0 0.0
2016-Aug-23 03:33N 35°27' E 139°42'3 2.6
2016-Aug-23 02:33N 35°30' E 139°43'1 1.5
2016-Aug-23 01:33N 35°29' E 139°42'1 1.4
2016-Aug-23 00:34N 35°27' E 139°42'1 0.9
2016-Aug-22 23:33N 35°28' E 139°43'1 1.0
2016-Aug-22 22:33N 35°27' E 139°42'3 3.1
2016-Aug-22 21:34N 35°27' E 139°39'0 0.0
2016-Aug-22 20:33N 35°27' E 139°39'0 0.0
2016-Aug-21 11:16N 35°27' E 139°39'2 2.7
2016-Aug-21 10:34N 35°27' E 139°41'1 0.5
2016-Aug-21 09:33N 35°28' E 139°40'3 2.9
2016-Aug-21 08:34N 35°29' E 139°43'2 2.0
2016-Aug-21 07:34N 35°28' E 139°42'1 0.8
2016-Aug-21 06:34N 35°27' E 139°43'5 4.8
2016-Aug-21 05:33N 35°24' E 139°38'2 2.3
2016-Aug-21 04:33N 35°23' E 139°41'4 4.2
2016-Aug-21 03:34N 35°28' E 139°40'0 0.0
2016-Aug-21 02:34N 35°28' E 139°40'2 2.0
2016-Aug-21 01:33N 35°27' E 139°43'3 3.3
2016-Aug-21 00:33N 35°27' E 139°39'0 0.0
2016-Aug-20 23:34N 35°27' E 139°39'0 0.0
2016-Aug-20 10:28N 35°27' E 139°39'3 3.6
2016-Aug-20 09:33N 35°28' E 139°42'1 1.2
2016-Aug-20 08:33N 35°27' E 139°42'1 0.9
2016-Aug-20 07:34N 35°26' E 139°42'4 3.6
2016-Aug-20 06:33N 35°24' E 139°38'0 0.0
2016-Aug-20 05:33N 35°24' E 139°38'3 2.7
2016-Aug-20 04:34N 35°23' E 139°41'0 0.5
2016-Aug-20 03:34N 35°23' E 139°40'0 0.0
2016-Aug-20 02:34N 35°23' E 139°40'0 0.0
2016-Aug-20 01:34N 35°23' E 139°40'0 0.0
2016-Aug-20 00:34N 35°23' E 139°40'2 2.3
2016-Aug-19 23:34N 35°25' E 139°39'3 2.6
2016-Aug-19 22:34N 35°23' E 139°41'5 5.0
2016-Aug-19 21:34N 35°27' E 139°39'0 0.0
2016-Aug-19 06:33N 35°27' E 139°39'0 0.0
2016-Aug-19 05:34N 35°27' E 139°39'2 2.1
2016-Aug-19 04:33N 35°26' E 139°41'2 2.1
2016-Aug-19 03:34N 35°27' E 139°39'0 0.0
2016-Aug-19 02:34N 35°27' E 139°39'0 0.0
2016-Aug-19 01:33N 35°27' E 139°39'0 0.0
2016-Aug-19 00:33N 35°27' E 139°39'0 0.0
2016-Aug-18 23:33N 35°27' E 139°39'6 6.2
2016-Aug-18 22:34N 35°31' E 139°45'4 3.8
2016-Aug-18 21:33N 35°27' E 139°43'2 2.5
2016-Aug-18 20:34N 35°27' E 139°40'1 1.1
2016-Aug-18 19:34N 35°27' E 139°39'0 0.0
2016-Aug-18 09:33N 35°27' E 139°39'3 3.3
2016-Aug-18 08:33N 35°26' E 139°42'  
Track history (hours):
 
Tides and Currents Weather Stations Pressure Air Temp Water Temp Dewpoint Dewpoint Depression Visibility Wind Speed Wind Dir Waves Ship Positions

Chitose

Last reported at 2016-Aug-28 08:33 UTC. Time now 2016-Aug-28 08:46 UTC.
Position N 35°23' E 139°41'.

Length 33 m; draft 3.8 m.

Type: Tug. MMSI: 431000953.

Date/timePositionNaut miles runAvg speedWind from/ knotsBaromVisibWave heightAir tempDewpointWater temp
2016-Aug-28 08:33N 35°23' E 139°41'0 0.2
2016-Aug-28 07:33N 35°23' E 139°41'4 4.5
2016-Aug-28 06:33N 35°27' E 139°41'1 1.2
2016-Aug-28 05:34N 35°27' E 139°40'0 0.0
2016-Aug-28 04:33N 35°27' E 139°40'0 0.0
2016-Aug-28 03:33N 35°27' E 139°40'0 0.0
2016-Aug-28 02:33N 35°27' E 139°40'1 1.0
2016-Aug-28 01:34N 35°28' E 139°40'1 0.6
2016-Aug-28 00:33N 35°27' E 139°40'1 1.4
2016-Aug-27 23:33N 35°27' E 139°42'0 0.3
2016-Aug-27 22:33N 35°27' E 139°42'2 1.8
2016-Aug-27 21:33N 35°26' E 139°44'4 3.9
2016-Aug-27 20:34N 35°27' E 139°40'2 0.2
2016-Aug-27 09:34N 35°26' E 139°42'2 2.0
2016-Aug-27 08:34N 35°24' E 139°41'3 3.3
2016-Aug-27 07:34N 35°27' E 139°43'2 1.8
2016-Aug-27 06:34N 35°28' E 139°41'1 0.3
2016-Aug-27 04:34N 35°28' E 139°41'0 0.0
2016-Aug-27 03:34N 35°28' E 139°41'1 1.0
2016-Aug-27 02:34N 35°28' E 139°41'1 1.0
2016-Aug-27 01:34N 35°28' E 139°42'0 0.1
2016-Aug-27 00:34N 35°28' E 139°42'2 1.6
2016-Aug-26 23:34N 35°26' E 139°43'2 2.4
2016-Aug-26 22:34N 35°28' E 139°42'2 2.3
2016-Aug-26 21:34N 35°27' E 139°40'0 0.0
2016-Aug-25 23:17N 35°27' E 139°40'1 1.4
2016-Aug-25 22:33N 35°28' E 139°40'2 2.1
2016-Aug-25 21:33N 35°27' E 139°42'1 1.0
2016-Aug-25 20:33N 35°28' E 139°41'1 0.9
2016-Aug-25 19:34N 35°27' E 139°41'1 1.1
2016-Aug-25 18:33N 35°28' E 139°40'0 0.0
2016-Aug-25 17:33N 35°28' E 139°40'0 0.0
2016-Aug-25 16:33N 35°28' E 139°40'0 0.0
2016-Aug-25 15:33N 35°28' E 139°40'5 5.4
2016-Aug-25 14:33N 35°29' E 139°47'2 2.3
2016-Aug-25 13:33N 35°31' E 139°46'7 6.6
2016-Aug-25 12:33N 35°27' E 139°39'0 0.0
2016-Aug-25 11:33N 35°27' E 139°39'0 0.0
2016-Aug-25 10:33N 35°27' E 139°39'2 1.5
2016-Aug-25 09:34N 35°27' E 139°41'1 0.6
2016-Aug-25 08:34N 35°27' E 139°41'0 0.5
2016-Aug-25 07:33N 35°28' E 139°40'1 1.2
2016-Aug-25 06:33N 35°26' E 139°41'1 0.6
2016-Aug-25 04:33N 35°27' E 139°40'0 0.0
2016-Aug-25 03:34N 35°27' E 139°40'0 0.0
2016-Aug-25 02:34N 35°27' E 139°40'0 0.0
2016-Aug-25 01:33N 35°27' E 139°40'0 0.0
2016-Aug-25 00:33N 35°27' E 139°40'0 0.0
2016-Aug-24 23:33N 35°27' E 139°40'0 0.0
2016-Aug-24 22:33N 35°27' E 139°40'0 0.0
2016-Aug-24 21:34N 35°27' E 139°40'0 0.0
2016-Aug-24 20:33N 35°27' E 139°40'1 0.1
2016-Aug-24 04:34N 35°26' E 139°41'1 1.4
2016-Aug-24 03:34N 35°27' E 139°39'0 0.0
2016-Aug-24 02:33N 35°27' E 139°39'0 0.1
2016-Aug-24 01:34N 35°27' E 139°40'1010.4
2016-Aug-24 00:33N 35°30' E 139°52'6 5.6
2016-Aug-23 23:34N 35°28' E 139°58'3 2.8
2016-Aug-23 22:33N 35°29' E 139°55'1111.5
2016-Aug-23 21:34N 35°27' E 139°41'1 1.2
2016-Aug-23 20:34N 35°27' E 139°40'1 0.1
2016-Aug-23 08:33N 35°27' E 139°41'1 1.3
2016-Aug-23 07:33N 35°27' E 139°39'2 1.9
2016-Aug-23 06:33N 35°28' E 139°41'2 1.7
2016-Aug-23 05:33N 35°29' E 139°43'2 2.1
2016-Aug-23 04:34N 35°27' E 139°42'0 0.0
2016-Aug-23 03:33N 35°27' E 139°42'3 2.6
2016-Aug-23 02:33N 35°30' E 139°43'1 1.5
2016-Aug-23 01:33N 35°29' E 139°42'1 1.4
2016-Aug-23 00:34N 35°27' E 139°42'1 0.9
2016-Aug-22 23:33N 35°28' E 139°43'1 1.0
2016-Aug-22 22:33N 35°27' E 139°42'3 3.1
2016-Aug-22 21:34N 35°27' E 139°39'0 0.0
2016-Aug-22 20:33N 35°27' E 139°39'0 0.0
2016-Aug-21 11:16N 35°27' E 139°39'2 2.7
2016-Aug-21 10:34N 35°27' E 139°41'1 0.5
2016-Aug-21 09:33N 35°28' E 139°40'3 2.9
2016-Aug-21 08:34N 35°29' E 139°43'2 2.0
2016-Aug-21 07:34N 35°28' E 139°42'1 0.8
2016-Aug-21 06:34N 35°27' E 139°43'5 4.8
2016-Aug-21 05:33N 35°24' E 139°38'2 2.3
2016-Aug-21 04:33N 35°23' E 139°41'4 4.2
2016-Aug-21 03:34N 35°28' E 139°40'0 0.0
2016-Aug-21 02:34N 35°28' E 139°40'2 2.0
2016-Aug-21 01:33N 35°27' E 139°43'3 3.3
2016-Aug-21 00:33N 35°27' E 139°39'0 0.0
2016-Aug-20 23:34N 35°27' E 139°39'0 0.0
2016-Aug-20 10:28N 35°27' E 139°39'3 3.6
2016-Aug-20 09:33N 35°28' E 139°42'1 1.2
2016-Aug-20 08:33N 35°27' E 139°42'1 0.9
2016-Aug-20 07:34N 35°26' E 139°42'4 3.6
2016-Aug-20 06:33N 35°24' E 139°38'0 0.0
2016-Aug-20 05:33N 35°24' E 139°38'3 2.7
2016-Aug-20 04:34N 35°23' E 139°41'0 0.5
2016-Aug-20 03:34N 35°23' E 139°40'0 0.0
2016-Aug-20 02:34N 35°23' E 139°40'0 0.0
2016-Aug-20 01:34N 35°23' E 139°40'0 0.0
2016-Aug-20 00:34N 35°23' E 139°40'2 2.3
2016-Aug-19 23:34N 35°25' E 139°39'3 2.6
2016-Aug-19 22:34N 35°23' E 139°41'5 5.0
2016-Aug-19 21:34N 35°27' E 139°39'0 0.0
2016-Aug-19 06:33N 35°27' E 139°39'0 0.0
2016-Aug-19 05:34N 35°27' E 139°39'2 2.1
2016-Aug-19 04:33N 35°26' E 139°41'2 2.1
2016-Aug-19 03:34N 35°27' E 139°39'0 0.0
2016-Aug-19 02:34N 35°27' E 139°39'0 0.0
2016-Aug-19 01:33N 35°27' E 139°39'0 0.0
2016-Aug-19 00:33N 35°27' E 139°39'0 0.0
2016-Aug-18 23:33N 35°27' E 139°39'6 6.2
2016-Aug-18 22:34N 35°31' E 139°45'4 3.8
2016-Aug-18 21:33N 35°27' E 139°43'2 2.5
2016-Aug-18 20:34N 35°27' E 139°40'1 1.1
2016-Aug-18 19:34N 35°27' E 139°39'0 0.0
2016-Aug-18 09:33N 35°27' E 139°39'3 3.3
2016-Aug-18 08:33N 35°26' E 139°42'  

Dump ship's entire track history